createdAt,value
2018-09-01T00:00:15.551Z,1019.23
2018-09-01T00:01:15.528Z,1019.20
2018-09-01T00:02:15.508Z,1019.19
2018-09-01T00:03:15.491Z,1019.21
2018-09-01T00:04:15.483Z,1019.21
2018-09-01T00:05:15.456Z,1019.17
2018-09-01T00:06:15.443Z,1019.17
2018-09-01T00:07:15.422Z,1019.17
2018-09-01T00:08:15.402Z,1019.17
2018-09-01T00:09:15.386Z,1019.12
2018-09-01T00:10:15.368Z,1019.14
2018-09-01T00:11:15.384Z,1019.14
2018-09-01T00:12:15.330Z,1019.14
2018-09-01T00:13:15.313Z,1019.11
2018-09-01T00:14:15.296Z,1019.12
2018-09-01T00:15:15.279Z,1019.10
2018-09-01T00:16:15.268Z,1019.15
2018-09-01T00:17:15.245Z,1019.18
2018-09-01T00:18:15.232Z,1019.13
2018-09-01T00:19:15.207Z,1019.16
2018-09-01T00:20:15.188Z,1019.13
2018-09-01T00:21:15.170Z,1019.10
2018-09-01T00:22:15.157Z,1019.13
2018-09-01T00:23:15.139Z,1019.14
2018-09-01T00:24:15.118Z,1019.13
2018-09-01T00:25:15.100Z,1019.15
2018-09-01T00:26:15.085Z,1019.18
2018-09-01T00:27:15.065Z,1019.17
2018-09-01T00:28:15.047Z,1019.16
2018-09-01T00:29:15.029Z,1019.15
2018-09-01T00:30:15.015Z,1019.12
2018-09-01T00:31:15.000Z,1019.15
2018-09-01T00:32:14.975Z,1019.15
2018-09-01T00:33:14.958Z,1019.14
2018-09-01T00:34:14.938Z,1019.16
2018-09-01T00:35:14.930Z,1019.15
2018-09-01T00:36:14.903Z,1019.15
2018-09-01T00:37:14.903Z,1019.16
2018-09-01T00:38:14.866Z,1019.11
2018-09-01T00:39:14.849Z,1019.13
2018-09-01T00:40:14.843Z,1019.11
2018-09-01T00:41:14.814Z,1019.10
2018-09-01T00:42:14.801Z,1019.11
2018-09-01T00:43:14.784Z,1019.13
2018-09-01T00:44:14.763Z,1019.13
2018-09-01T00:45:14.746Z,1019.10
2018-09-01T00:46:14.725Z,1019.14
2018-09-01T00:47:14.708Z,1019.16
2018-09-01T00:48:14.686Z,1019.17
2018-09-01T00:49:14.669Z,1019.17
2018-09-01T00:50:14.652Z,1019.16
2018-09-01T00:51:14.633Z,1019.18
2018-09-01T00:52:14.614Z,1019.19
2018-09-01T00:53:14.599Z,1019.18
2018-09-01T00:54:14.588Z,1019.17
2018-09-01T00:55:14.561Z,1019.19
2018-09-01T00:56:14.543Z,1019.18
2018-09-01T00:57:14.524Z,1019.18
2018-09-01T00:58:14.505Z,1019.16
2018-09-01T00:59:14.491Z,1019.15
2018-09-01T01:00:14.472Z,1019.15
2018-09-01T01:01:14.456Z,1019.21
2018-09-01T01:02:14.431Z,1019.17
2018-09-01T01:03:14.416Z,1019.18
2018-09-01T01:04:14.395Z,1019.19
2018-09-01T01:05:14.377Z,1019.21
2018-09-01T01:06:14.358Z,1019.20
2018-09-01T01:07:14.343Z,1019.22
2018-09-01T01:08:14.321Z,1019.24
2018-09-01T01:09:14.309Z,1019.23
2018-09-01T01:10:14.290Z,1019.25
2018-09-01T01:11:14.273Z,1019.27
2018-09-01T01:12:14.248Z,1019.23
2018-09-01T01:13:14.231Z,1019.24
2018-09-01T01:14:14.218Z,1019.24
2018-09-01T01:15:14.193Z,1019.23
2018-09-01T01:16:14.176Z,1019.27
2018-09-01T01:17:14.164Z,1019.22
2018-09-01T01:18:14.139Z,1019.25
2018-09-01T01:19:14.123Z,1019.25
2018-09-01T01:20:14.108Z,1019.27
2018-09-01T01:21:14.086Z,1019.24
2018-09-01T01:22:14.068Z,1019.27
2018-09-01T01:23:14.048Z,1019.25
2018-09-01T01:24:14.030Z,1019.24
2018-09-01T01:25:14.011Z,1019.22
2018-09-01T01:26:13.992Z,1019.26
2018-09-01T01:27:13.973Z,1019.23
2018-09-01T01:28:13.956Z,1019.24
2018-09-01T01:29:13.945Z,1019.25
2018-09-01T01:30:13.919Z,1019.25
2018-09-01T01:31:13.906Z,1019.24
2018-09-01T01:32:13.881Z,1019.24
2018-09-01T01:33:13.869Z,1019.24
2018-09-01T01:34:13.844Z,1019.27
2018-09-01T01:35:13.825Z,1019.30
2018-09-01T01:36:13.805Z,1019.27
2018-09-01T01:37:13.788Z,1019.27
2018-09-01T01:38:13.792Z,1019.27
2018-09-01T01:39:13.751Z,1019.28
2018-09-01T01:40:13.733Z,1019.31
2018-09-01T01:41:13.719Z,1019.28
2018-09-01T01:42:13.701Z,1019.27
2018-09-01T01:43:13.677Z,1019.28
2018-09-01T01:44:13.661Z,1019.27
2018-09-01T01:45:13.639Z,1019.24
2018-09-01T01:46:13.621Z,1019.28
2018-09-01T01:47:13.612Z,1019.28
2018-09-01T01:48:13.590Z,1019.27
2018-09-01T01:49:13.566Z,1019.31
2018-09-01T01:50:13.548Z,1019.29
2018-09-01T01:51:13.530Z,1019.28
2018-09-01T01:52:13.511Z,1019.29
2018-09-01T01:53:13.503Z,1019.27
2018-09-01T01:54:13.475Z,1019.31
2018-09-01T01:55:13.456Z,1019.32
2018-09-01T01:56:13.434Z,1019.34
2018-09-01T01:57:13.417Z,1019.36
2018-09-01T01:58:13.409Z,1019.38
2018-09-01T01:59:13.388Z,1019.37
2018-09-01T02:00:13.366Z,1019.35
2018-09-01T02:01:13.342Z,1019.39
2018-09-01T02:02:13.330Z,1019.33
2018-09-01T02:03:13.306Z,1019.37
2018-09-01T02:04:13.294Z,1019.35
2018-09-01T02:05:13.270Z,1019.34
2018-09-01T02:06:13.252Z,1019.38
2018-09-01T02:07:13.236Z,1019.34
2018-09-01T02:08:13.211Z,1019.34
2018-09-01T02:09:13.191Z,1019.31
2018-09-01T02:10:13.173Z,1019.35
2018-09-01T02:11:13.166Z,1019.34
2018-09-01T02:12:13.136Z,1019.34
2018-09-01T02:13:13.117Z,1019.36
2018-09-01T02:14:13.104Z,1019.34
2018-09-01T02:15:13.085Z,1019.33
2018-09-01T02:16:13.062Z,1019.37
2018-09-01T02:17:13.047Z,1019.39
2018-09-01T02:18:13.027Z,1019.38
2018-09-01T02:19:13.007Z,1019.41
2018-09-01T02:20:12.987Z,1019.42
2018-09-01T02:21:12.970Z,1019.41
2018-09-01T02:22:12.949Z,1019.44
2018-09-01T02:23:12.932Z,1019.43
2018-09-01T02:24:12.909Z,1019.42
2018-09-01T02:25:12.892Z,1019.41
2018-09-01T02:26:12.877Z,1019.43
2018-09-01T02:27:12.856Z,1019.41
2018-09-01T02:28:12.838Z,1019.44
2018-09-01T02:29:12.823Z,1019.43
2018-09-01T02:30:12.797Z,1019.40
2018-09-01T02:31:12.783Z,1019.41
2018-09-01T02:32:12.761Z,1019.41
2018-09-01T02:33:12.740Z,1019.46
2018-09-01T02:34:12.726Z,1019.45
2018-09-01T02:35:12.704Z,1019.45
2018-09-01T02:36:12.697Z,1019.44
2018-09-01T02:37:12.666Z,1019.47
2018-09-01T02:38:12.651Z,1019.47
2018-09-01T02:39:12.636Z,1019.47
2018-09-01T02:40:12.638Z,1019.44
2018-09-01T02:41:12.593Z,1019.43
2018-09-01T02:42:12.573Z,1019.46
2018-09-01T02:43:12.554Z,1019.47
2018-09-01T02:44:12.533Z,1019.50
2018-09-01T02:45:12.519Z,1019.43
2018-09-01T02:46:12.497Z,1019.47
2018-09-01T02:47:12.478Z,1019.50
2018-09-01T02:48:12.458Z,1019.46
2018-09-01T02:49:12.447Z,1019.52
2018-09-01T02:50:12.426Z,1019.52
2018-09-01T02:51:12.403Z,1019.50
2018-09-01T02:52:12.384Z,1019.50
2018-09-01T02:53:12.365Z,1019.52
2018-09-01T02:54:12.345Z,1019.50
2018-09-01T02:55:12.329Z,1019.53
2018-09-01T02:56:12.312Z,1019.50
2018-09-01T02:57:12.287Z,1019.48
2018-09-01T02:58:12.273Z,1019.47
2018-09-01T02:59:12.251Z,1019.44
2018-09-01T03:00:12.239Z,1019.42
2018-09-01T03:01:12.219Z,1019.42
2018-09-01T03:02:12.199Z,1019.40
2018-09-01T03:03:12.185Z,1019.39
2018-09-01T03:04:12.162Z,1019.40
2018-09-01T03:05:12.139Z,1019.41
2018-09-01T03:06:12.125Z,1019.42
2018-09-01T03:07:12.102Z,1019.44
2018-09-01T03:08:12.080Z,1019.46
2018-09-01T03:09:12.063Z,1019.47
2018-09-01T03:10:12.041Z,1019.48
2018-09-01T03:11:12.022Z,1019.44
2018-09-01T03:12:12.003Z,1019.38
2018-09-01T03:13:11.984Z,1019.42
2018-09-01T03:14:11.964Z,1019.41
2018-09-01T03:15:11.945Z,1019.41
2018-09-01T03:16:11.925Z,1019.37
2018-09-01T03:17:11.911Z,1019.41
2018-09-01T03:18:11.887Z,1019.37
2018-09-01T03:19:11.882Z,1019.40
2018-09-01T03:20:11.849Z,1019.39
2018-09-01T03:21:11.832Z,1019.41
2018-09-01T03:22:11.824Z,1019.39
2018-09-01T03:23:11.795Z,1019.40
2018-09-01T03:24:11.777Z,1019.41
2018-09-01T03:25:11.757Z,1019.43
2018-09-01T03:26:11.741Z,1019.44
2018-09-01T03:27:11.720Z,1019.44
2018-09-01T03:28:11.700Z,1019.46
2018-09-01T03:29:11.678Z,1019.48
2018-09-01T03:30:11.660Z,1019.48
2018-09-01T03:31:11.643Z,1019.49
2018-09-01T03:32:11.621Z,1019.48
2018-09-01T03:33:11.601Z,1019.50
2018-09-01T03:34:11.585Z,1019.50
2018-09-01T03:35:11.566Z,1019.50
2018-09-01T03:36:11.545Z,1019.50
2018-09-01T03:37:11.531Z,1019.53
2018-09-01T03:38:11.508Z,1019.56
2018-09-01T03:39:11.489Z,1019.52
2018-09-01T03:40:11.466Z,1019.57
2018-09-01T03:41:11.449Z,1019.53
2018-09-01T03:42:11.434Z,1019.54
2018-09-01T03:43:11.414Z,1019.49
2018-09-01T03:44:11.390Z,1019.51
2018-09-01T03:45:11.372Z,1019.52
2018-09-01T03:46:11.354Z,1019.51
2018-09-01T03:47:11.336Z,1019.51
2018-09-01T03:48:11.317Z,1019.54
2018-09-01T03:49:11.297Z,1019.51
2018-09-01T03:50:11.277Z,1019.53
2018-09-01T03:51:11.261Z,1019.53
2018-09-01T03:52:11.240Z,1019.54
2018-09-01T03:53:11.220Z,1019.55
2018-09-01T03:54:11.201Z,1019.55
2018-09-01T03:55:11.182Z,1019.54
2018-09-01T03:56:11.161Z,1019.58
2018-09-01T03:57:11.142Z,1019.54
2018-09-01T03:58:11.123Z,1019.52
2018-09-01T03:59:11.105Z,1019.57
2018-09-01T04:00:11.084Z,1019.53
2018-09-01T04:01:11.065Z,1019.52
2018-09-01T04:02:11.046Z,1019.55
2018-09-01T04:03:11.027Z,1019.54
2018-09-01T04:04:11.006Z,1019.56
2018-09-01T04:05:10.993Z,1019.52
2018-09-01T04:06:10.972Z,1019.52
2018-09-01T04:07:10.951Z,1019.52
2018-09-01T04:08:10.930Z,1019.53
2018-09-01T04:09:10.913Z,1019.52
2018-09-01T04:10:10.893Z,1019.52
2018-09-01T04:11:10.874Z,1019.52
2018-09-01T04:12:10.853Z,1019.51
2018-09-01T04:13:10.834Z,1019.53
2018-09-01T04:14:10.814Z,1019.51
2018-09-01T04:15:10.796Z,1019.51
2018-09-01T04:16:10.774Z,1019.54
2018-09-01T04:17:10.761Z,1019.59
2018-09-01T04:18:10.736Z,1019.61
2018-09-01T04:19:10.717Z,1019.62
2018-09-01T04:20:10.702Z,1019.64
2018-09-01T04:21:10.680Z,1019.64
2018-09-01T04:22:10.660Z,1019.66
2018-09-01T04:23:10.642Z,1019.70
2018-09-01T04:24:10.628Z,1019.70
2018-09-01T04:25:10.601Z,1019.71
2018-09-01T04:26:10.582Z,1019.69
2018-09-01T04:27:10.564Z,1019.70
2018-09-01T04:28:10.542Z,1019.72
2018-09-01T04:29:10.525Z,1019.69
2018-09-01T04:30:10.506Z,1019.69
2018-09-01T04:31:10.487Z,1019.69
2018-09-01T04:32:10.574Z,1019.66
2018-09-01T04:33:10.448Z,1019.69
2018-09-01T04:34:10.428Z,1019.67
2018-09-01T04:35:10.409Z,1019.70
2018-09-01T04:36:10.388Z,1019.70
2018-09-01T04:37:10.372Z,1019.71
2018-09-01T04:38:10.351Z,1019.72
2018-09-01T04:39:10.331Z,1019.74
2018-09-01T04:40:10.311Z,1019.75
2018-09-01T04:41:10.294Z,1019.79
2018-09-01T04:42:10.275Z,1019.81
2018-09-01T04:43:10.254Z,1019.80
2018-09-01T04:44:10.232Z,1019.85
2018-09-01T04:45:10.213Z,1019.88
2018-09-01T04:46:10.199Z,1019.86
2018-09-01T04:47:10.269Z,1019.85
2018-09-01T04:48:10.157Z,1019.82
2018-09-01T04:49:10.142Z,1019.83
2018-09-01T04:50:10.120Z,1019.81
2018-09-01T04:51:10.098Z,1019.84
2018-09-01T04:52:10.079Z,1019.80
2018-09-01T04:53:10.060Z,1019.81
2018-09-01T04:54:10.038Z,1019.85
2018-09-01T04:55:10.024Z,1019.85
2018-09-01T04:56:10.006Z,1019.86
2018-09-01T04:57:09.982Z,1019.88
2018-09-01T04:58:09.963Z,1019.90
2018-09-01T04:59:09.943Z,1019.88
2018-09-01T05:00:09.923Z,1019.90
2018-09-01T05:01:10.120Z,1019.93
2018-09-01T05:02:09.885Z,1019.91
2018-09-01T05:03:09.867Z,1019.91
2018-09-01T05:04:09.847Z,1019.92
2018-09-01T05:05:09.831Z,1019.93
2018-09-01T05:06:09.808Z,1019.95
2018-09-01T05:07:09.790Z,1019.94
2018-09-01T05:08:09.769Z,1019.97
2018-09-01T05:09:09.752Z,1019.99
2018-09-01T05:10:09.732Z,1020.00
2018-09-01T05:11:09.710Z,1020.00
2018-09-01T05:12:09.693Z,1019.98
2018-09-01T05:13:09.671Z,1019.96
2018-09-01T05:14:09.653Z,1019.95
2018-09-01T05:15:09.633Z,1019.99
2018-09-01T05:16:09.614Z,1019.98
2018-09-01T05:17:09.590Z,1020.03
2018-09-01T05:18:09.573Z,1020.03
2018-09-01T05:19:09.552Z,1020.02
2018-09-01T05:20:09.533Z,1019.99
2018-09-01T05:21:09.521Z,1020.04
2018-09-01T05:22:09.497Z,1020.09
2018-09-01T05:23:09.475Z,1020.08
2018-09-01T05:24:09.463Z,1020.09
2018-09-01T05:25:09.435Z,1020.04
2018-09-01T05:26:09.420Z,1020.09
2018-09-01T05:27:09.417Z,1020.09
2018-09-01T05:28:09.378Z,1020.12
2018-09-01T05:29:09.369Z,1020.09
2018-09-01T05:30:09.342Z,1020.12
2018-09-01T05:31:09.320Z,1020.14
2018-09-01T05:32:09.299Z,1020.14
2018-09-01T05:33:09.288Z,1020.18
2018-09-01T05:34:09.260Z,1020.17
2018-09-01T05:35:09.241Z,1020.18
2018-09-01T05:36:09.225Z,1020.17
2018-09-01T05:37:09.213Z,1020.27
2018-09-01T05:38:09.183Z,1020.28
2018-09-01T05:39:09.163Z,1020.29
2018-09-01T05:40:09.146Z,1020.31
2018-09-01T05:41:09.122Z,1020.35
2018-09-01T05:42:09.107Z,1020.38
2018-09-01T05:43:09.084Z,1020.37
2018-09-01T05:44:09.073Z,1020.36
2018-09-01T05:45:09.044Z,1020.38
2018-09-01T05:46:09.026Z,1020.35
2018-09-01T05:47:09.007Z,1020.42
2018-09-01T05:48:08.986Z,1020.38
2018-09-01T05:49:08.966Z,1020.42
2018-09-01T05:50:08.946Z,1020.44
2018-09-01T05:51:08.928Z,1020.45
2018-09-01T05:52:08.907Z,1020.47
2018-09-01T05:53:08.891Z,1020.46
2018-09-01T05:54:08.872Z,1020.43
2018-09-01T05:55:08.853Z,1020.48
2018-09-01T05:56:08.833Z,1020.47
2018-09-01T05:57:08.812Z,1020.50
2018-09-01T05:58:08.800Z,1020.50
2018-09-01T05:59:08.773Z,1020.54
2018-09-01T06:00:08.753Z,1020.55
2018-09-01T06:01:08.743Z,1020.53
2018-09-01T06:02:08.714Z,1020.54
2018-09-01T06:03:08.695Z,1020.53
2018-09-01T06:04:08.676Z,1020.56
2018-09-01T06:05:08.660Z,1020.58
2018-09-01T06:06:08.741Z,1020.58
2018-09-01T06:07:08.623Z,1020.62
2018-09-01T06:08:08.596Z,1020.65
2018-09-01T06:09:08.582Z,1020.69
2018-09-01T06:10:08.563Z,1020.68
2018-09-01T06:11:08.541Z,1020.70
2018-09-01T06:12:08.521Z,1020.73
2018-09-01T06:13:08.500Z,1020.71
2018-09-01T06:14:08.481Z,1020.72
2018-09-01T06:15:08.466Z,1020.70
2018-09-01T06:16:08.445Z,1020.75
2018-09-01T06:17:08.425Z,1020.76
2018-09-01T06:18:08.413Z,1020.74
2018-09-01T06:19:08.419Z,1020.74
2018-09-01T06:20:08.367Z,1020.76
2018-09-01T06:21:08.349Z,1020.79
2018-09-01T06:22:08.333Z,1020.78
2018-09-01T06:23:08.309Z,1020.78
2018-09-01T06:24:08.296Z,1020.76
2018-09-01T06:25:08.275Z,1020.79
2018-09-01T06:26:08.250Z,1020.83
2018-09-01T06:27:08.234Z,1020.80
2018-09-01T06:28:08.214Z,1020.81
2018-09-01T06:29:08.195Z,1020.83
2018-09-01T06:30:08.195Z,1020.77
2018-09-01T06:31:08.155Z,1020.78
2018-09-01T06:32:08.135Z,1020.82
2018-09-01T06:33:08.125Z,1020.81
2018-09-01T06:34:08.098Z,1020.80
2018-09-01T06:35:08.080Z,1020.82
2018-09-01T06:36:08.060Z,1020.81
2018-09-01T06:37:08.041Z,1020.81
2018-09-01T06:38:08.021Z,1020.82
2018-09-01T06:39:08.001Z,1020.83
2018-09-01T06:40:07.989Z,1020.84
2018-09-01T06:41:07.964Z,1020.86
2018-09-01T06:42:07.943Z,1020.86
2018-09-01T06:43:07.995Z,1020.86
2018-09-01T06:44:07.915Z,1020.89
2018-09-01T06:45:07.887Z,1020.89
2018-09-01T06:46:07.871Z,1020.89
2018-09-01T06:47:07.848Z,1020.92
2018-09-01T06:48:07.830Z,1020.93
2018-09-01T06:49:07.811Z,1020.92
2018-09-01T06:50:07.793Z,1020.91
2018-09-01T06:51:07.774Z,1020.92
2018-09-01T06:52:07.753Z,1020.92
2018-09-01T06:53:07.734Z,1020.92
2018-09-01T06:54:07.720Z,1020.99
2018-09-01T06:55:07.698Z,1020.94
2018-09-01T06:56:07.677Z,1020.93
2018-09-01T06:57:07.660Z,1020.97
2018-09-01T06:58:07.641Z,1020.99
2018-09-01T06:59:07.624Z,1021.05
2018-09-01T07:00:07.607Z,1021.00
2018-09-01T07:01:07.592Z,1020.98
2018-09-01T07:02:07.580Z,1021.03
2018-09-01T07:03:07.551Z,1021.00
2018-09-01T07:04:07.531Z,1021.00
2018-09-01T07:05:07.513Z,1021.02
2018-09-01T07:06:07.493Z,1021.01
2018-09-01T07:07:07.476Z,1021.04
2018-09-01T07:08:07.454Z,1021.05
2018-09-01T07:09:07.435Z,1021.02
2018-09-01T07:10:07.416Z,1021.03
2018-09-01T07:11:07.406Z,1021.04
2018-09-01T07:12:07.380Z,1021.04
2018-09-01T07:13:07.364Z,1021.02
2018-09-01T07:14:07.355Z,1021.02
2018-09-01T07:15:07.332Z,1021.02
2018-09-01T07:16:07.307Z,1021.03
2018-09-01T07:17:07.290Z,1021.06
2018-09-01T07:18:07.270Z,1021.03
2018-09-01T07:19:07.256Z,1021.06
2018-09-01T07:20:07.230Z,1021.06
2018-09-01T07:21:07.213Z,1021.07
2018-09-01T07:22:07.195Z,1021.10
2018-09-01T07:23:07.182Z,1021.09
2018-09-01T07:24:07.155Z,1021.10
2018-09-01T07:25:07.147Z,1021.13
2018-09-01T07:26:07.118Z,1021.10
2018-09-01T07:27:07.100Z,1021.11
2018-09-01T07:28:07.089Z,1021.14
2018-09-01T07:29:07.063Z,1021.16
2018-09-01T07:30:07.113Z,1021.13
2018-09-01T07:31:07.572Z,1021.14
2018-09-01T07:32:07.007Z,1021.15
2018-09-01T07:33:06.989Z,1021.19
2018-09-01T07:34:06.973Z,1021.15
2018-09-01T07:35:06.960Z,1021.17
2018-09-01T07:36:06.933Z,1021.18
2018-09-01T07:37:06.915Z,1021.21
2018-09-01T07:38:06.896Z,1021.25
2018-09-01T07:39:06.878Z,1021.27
2018-09-01T07:40:06.859Z,1021.30
2018-09-01T07:41:06.841Z,1021.26
2018-09-01T07:42:06.822Z,1021.26
2018-09-01T07:43:06.811Z,1021.23
2018-09-01T07:44:06.786Z,1021.28
2018-09-01T07:45:06.768Z,1021.26
2018-09-01T07:46:06.748Z,1021.25
2018-09-01T07:47:06.732Z,1021.24
2018-09-01T07:48:06.721Z,1021.21
2018-09-01T07:49:06.693Z,1021.23
2018-09-01T07:50:06.739Z,1021.25
2018-09-01T07:51:06.664Z,1021.28
2018-09-01T07:52:06.640Z,1021.32
2018-09-01T07:53:06.623Z,1021.34
2018-09-01T07:54:06.602Z,1021.38
2018-09-01T07:55:06.584Z,1021.35
2018-09-01T07:56:06.595Z,1021.32
2018-09-01T07:57:06.553Z,1021.37
2018-09-01T07:58:06.533Z,1021.40
2018-09-01T07:59:06.510Z,1021.42
2018-09-01T08:00:06.492Z,1021.38
2018-09-01T08:01:06.486Z,1021.42
2018-09-01T08:02:06.455Z,1021.44
2018-09-01T08:03:06.490Z,1021.48
2018-09-01T08:04:06.426Z,1021.49
2018-09-01T08:05:06.404Z,1021.52
2018-09-01T08:06:06.384Z,1021.56
2018-09-01T08:07:06.381Z,1021.55
2018-09-01T08:08:06.353Z,1021.55
2018-09-01T08:09:06.338Z,1021.53
2018-09-01T08:10:06.312Z,1021.55
2018-09-01T08:11:06.296Z,1021.54
2018-09-01T08:12:06.278Z,1021.53
2018-09-01T08:13:06.267Z,1021.55
2018-09-01T08:14:06.350Z,1021.55
2018-09-01T08:15:06.227Z,1021.59
2018-09-01T08:16:06.214Z,1021.57
2018-09-01T08:17:06.198Z,1021.56
2018-09-01T08:18:06.177Z,1021.57
2018-09-01T08:19:06.163Z,1021.60
2018-09-01T08:20:06.136Z,1021.55
2018-09-01T08:21:06.119Z,1021.58
2018-09-01T08:22:06.106Z,1021.60
2018-09-01T08:23:06.083Z,1021.60
2018-09-01T08:24:06.063Z,1021.60
2018-09-01T08:25:06.044Z,1021.54
2018-09-01T08:26:06.074Z,1021.58
2018-09-01T08:27:06.010Z,1021.55
2018-09-01T08:28:06.000Z,1021.56
2018-09-01T08:29:05.978Z,1021.58
2018-09-01T08:30:05.955Z,1021.60
2018-09-01T08:31:05.939Z,1021.60
2018-09-01T08:32:05.934Z,1021.56
2018-09-01T08:33:05.906Z,1021.55
2018-09-01T08:34:05.901Z,1021.54
2018-09-01T08:35:05.876Z,1021.60
2018-09-01T08:36:05.855Z,1021.62
2018-09-01T08:37:05.836Z,1021.57
2018-09-01T08:38:05.817Z,1021.61
2018-09-01T08:39:05.801Z,1021.59
2018-09-01T08:40:05.845Z,1021.58
2018-09-01T08:41:05.767Z,1021.56
2018-09-01T08:42:05.760Z,1021.55
2018-09-01T08:43:05.740Z,1021.55
2018-09-01T08:44:05.713Z,1021.59
2018-09-01T08:45:05.697Z,1021.64
2018-09-01T08:46:05.681Z,1021.62
2018-09-01T08:47:05.660Z,1021.62
2018-09-01T08:48:05.648Z,1021.56
2018-09-01T08:49:05.627Z,1021.64
2018-09-01T08:50:05.613Z,1021.62
2018-09-01T08:51:05.593Z,1021.63
2018-09-01T08:52:05.575Z,1021.57
2018-09-01T08:53:05.564Z,1021.59
2018-09-01T08:54:05.561Z,1021.57
2018-09-01T08:55:05.524Z,1021.61
2018-09-01T08:56:05.514Z,1021.60
2018-09-01T08:57:05.489Z,1021.66
2018-09-01T08:58:05.498Z,1021.65
2018-09-01T08:59:05.462Z,1021.73
2018-09-01T09:00:05.436Z,1021.64
2018-09-01T09:01:05.443Z,1021.65
2018-09-01T09:02:05.405Z,1021.65
2018-09-01T09:03:05.388Z,1021.65
2018-09-01T09:04:05.368Z,1021.66
2018-09-01T09:05:05.350Z,1021.66
2018-09-01T09:06:05.333Z,1021.69
2018-09-01T09:07:05.316Z,1021.64
2018-09-01T09:08:05.313Z,1021.69
2018-09-01T09:09:05.282Z,1021.72
2018-09-01T09:10:05.266Z,1021.74
2018-09-01T09:11:05.245Z,1021.70
2018-09-01T09:12:05.229Z,1021.58
2018-09-01T09:13:05.213Z,1021.61
2018-09-01T09:14:05.202Z,1021.71
2018-09-01T09:15:05.179Z,1021.70
2018-09-01T09:16:05.160Z,1021.70
2018-09-01T09:17:05.143Z,1021.64
2018-09-01T09:18:05.127Z,1021.71
2018-09-01T09:19:05.135Z,1021.61
2018-09-01T09:20:05.092Z,1021.58
2018-09-01T09:21:05.092Z,1021.68
2018-09-01T09:22:05.060Z,1021.67
2018-09-01T09:23:05.043Z,1021.65
2018-09-01T09:24:05.022Z,1021.62
2018-09-01T09:25:05.005Z,1021.71
2018-09-01T09:26:04.987Z,1021.62
2018-09-01T09:27:04.976Z,1021.65
2018-09-01T09:28:04.960Z,1021.60
2018-09-01T09:29:04.938Z,1021.63
2018-09-01T09:30:04.920Z,1021.75
2018-09-01T09:31:04.920Z,1021.73
2018-09-01T09:32:04.884Z,1021.75
2018-09-01T09:33:04.921Z,1021.69
2018-09-01T09:34:04.862Z,1021.67
2018-09-01T09:35:04.833Z,1021.66
2018-09-01T09:36:04.820Z,1021.64
2018-09-01T09:37:04.795Z,1021.66
2018-09-01T09:38:04.779Z,1021.66
2018-09-01T09:39:04.774Z,1021.74
2018-09-01T09:40:04.746Z,1021.77
2018-09-01T09:41:04.730Z,1021.75
2018-09-01T09:42:04.712Z,1021.75
2018-09-01T09:43:04.693Z,1021.77
2018-09-01T09:44:04.676Z,1021.79
2018-09-01T09:45:04.659Z,1021.74
2018-09-01T09:46:04.662Z,1021.76
2018-09-01T09:47:04.629Z,1021.81
2018-09-01T09:48:04.608Z,1021.80
2018-09-01T09:49:04.607Z,1021.79
2018-09-01T09:50:04.587Z,1021.82
2018-09-01T09:51:04.564Z,1021.81
2018-09-01T09:52:04.550Z,1021.82
2018-09-01T09:53:04.657Z,1021.81
2018-09-01T09:54:04.509Z,1021.81
2018-09-01T09:55:04.491Z,1021.79
2018-09-01T09:56:04.481Z,1021.80
2018-09-01T09:57:04.457Z,1021.83
2018-09-01T09:58:04.451Z,1021.80
2018-09-01T09:59:04.422Z,1021.82
2018-09-01T10:00:04.405Z,1021.69
2018-09-01T10:01:04.466Z,1021.73
2018-09-01T10:02:04.373Z,1021.76
2018-09-01T10:03:04.359Z,1021.81
2018-09-01T10:04:04.340Z,1021.82
2018-09-01T10:05:04.331Z,1021.83
2018-09-01T10:06:04.306Z,1021.84
2018-09-01T10:07:04.299Z,1021.86
2018-09-01T10:08:04.274Z,1021.74
2018-09-01T10:09:04.261Z,1021.75
2018-09-01T10:10:04.240Z,1021.77
2018-09-01T10:11:04.284Z,1021.76
2018-09-01T10:12:04.211Z,1021.74
2018-09-01T10:13:04.204Z,1021.72
2018-09-01T10:14:04.183Z,1021.70
2018-09-01T10:15:04.161Z,1021.68
2018-09-01T10:16:04.159Z,1021.66
2018-09-01T10:17:04.123Z,1021.73
2018-09-01T10:18:04.111Z,1021.70
2018-09-01T10:19:04.092Z,1021.70
2018-09-01T10:20:04.131Z,1021.69
2018-09-01T10:21:04.071Z,1021.65
2018-09-01T10:22:04.042Z,1021.69
2018-09-01T10:23:04.030Z,1021.74
2018-09-01T10:24:04.011Z,1021.74
2018-09-01T10:25:03.991Z,1021.75
2018-09-01T10:26:03.978Z,1021.69
2018-09-01T10:27:04.006Z,1021.68
2018-09-01T10:28:03.953Z,1021.70
2018-09-01T10:29:03.926Z,1021.69
2018-09-01T10:30:03.912Z,1021.69
2018-09-01T10:31:03.890Z,1021.68
2018-09-01T10:32:03.872Z,1021.66
2018-09-01T10:33:03.869Z,1021.62
2018-09-01T10:34:03.848Z,1021.61
2018-09-01T10:35:03.826Z,1021.59
2018-09-01T10:36:03.808Z,1021.53
2018-09-01T10:37:03.798Z,1021.52
2018-09-01T10:38:03.777Z,1021.57
2018-09-01T10:39:03.774Z,1021.59
2018-09-01T10:40:03.744Z,1021.60
2018-09-01T10:41:03.726Z,1021.61
2018-09-01T10:42:03.714Z,1021.65
2018-09-01T10:43:03.708Z,1021.64
2018-09-01T10:44:03.674Z,1021.69
2018-09-01T10:45:03.659Z,1021.70
2018-09-01T10:46:03.640Z,1021.74
2018-09-01T10:47:03.640Z,1021.65
2018-09-01T10:48:03.615Z,1021.66
2018-09-01T10:49:03.592Z,1021.64
2018-09-01T10:50:03.575Z,1021.68
2018-09-01T10:51:03.566Z,1021.70
2018-09-01T10:52:03.539Z,1021.65
2018-09-01T10:53:03.563Z,1021.67
2018-09-01T10:54:03.501Z,1021.66
2018-09-01T10:55:03.491Z,1021.68
2018-09-01T10:56:03.472Z,1021.68
2018-09-01T10:57:03.470Z,1021.65
2018-09-01T10:58:03.440Z,1021.66
2018-09-01T10:59:03.539Z,1021.63
2018-09-01T11:00:03.402Z,1021.60
2018-09-01T11:01:03.388Z,1021.58
2018-09-01T11:02:03.368Z,1021.60
2018-09-01T11:03:03.391Z,1021.54
2018-09-01T11:04:03.345Z,1021.52
2018-09-01T11:05:03.321Z,1021.60
2018-09-01T11:06:03.298Z,1021.60
2018-09-01T11:07:03.290Z,1021.59
2018-09-01T11:08:03.279Z,1021.59
2018-09-01T11:09:03.253Z,1021.60
2018-09-01T11:10:03.244Z,1021.54
2018-09-01T11:11:03.226Z,1021.51
2018-09-01T11:12:03.203Z,1021.52
2018-09-01T11:13:03.194Z,1021.54
2018-09-01T11:14:03.178Z,1021.57
2018-09-01T11:15:03.151Z,1021.55
2018-09-01T11:16:03.135Z,1021.44
2018-09-01T11:17:03.120Z,1021.53
2018-09-01T11:18:03.109Z,1021.52
2018-09-01T11:19:03.091Z,1021.43
2018-09-01T11:20:03.122Z,1021.49
2018-09-01T11:21:03.062Z,1021.45
2018-09-01T11:22:03.051Z,1021.41
2018-09-01T11:23:03.025Z,1021.43
2018-09-01T11:24:03.013Z,1021.42
2018-09-01T11:25:02.989Z,1021.42
2018-09-01T11:26:02.987Z,1021.37
2018-09-01T11:27:02.974Z,1021.40
2018-09-01T11:28:03.035Z,1021.40
2018-09-01T11:29:02.923Z,1021.38
2018-09-01T11:30:02.910Z,1021.43
2018-09-01T11:31:02.893Z,1021.32
2018-09-01T11:32:02.878Z,1021.31
2018-09-01T11:33:02.862Z,1021.31
2018-09-01T11:34:02.869Z,1021.28
2018-09-01T11:35:02.841Z,1021.30
2018-09-01T11:36:02.838Z,1021.28
2018-09-01T11:37:02.801Z,1021.28
2018-09-01T11:38:02.782Z,1021.27
2018-09-01T11:39:02.768Z,1021.27
2018-09-01T11:40:02.752Z,1021.34
2018-09-01T11:41:02.731Z,1021.35
2018-09-01T11:42:02.718Z,1021.29
2018-09-01T11:43:02.840Z,1021.25
2018-09-01T11:44:02.691Z,1021.38
2018-09-01T11:45:02.676Z,1021.35
2018-09-01T11:46:02.655Z,1021.31
2018-09-01T11:47:02.652Z,1021.44
2018-09-01T11:48:02.636Z,1021.36
2018-09-01T11:49:02.613Z,1021.36
2018-09-01T11:50:02.663Z,1021.37
2018-09-01T11:51:02.577Z,1021.45
2018-09-01T11:52:02.571Z,1021.46
2018-09-01T11:53:02.584Z,1021.50
2018-09-01T11:54:02.563Z,1021.49
2018-09-01T11:55:02.507Z,1021.39
2018-09-01T11:56:02.492Z,1021.49
2018-09-01T11:57:02.476Z,1021.50
2018-09-01T11:58:02.466Z,1021.41
2018-09-01T11:59:02.445Z,1021.38
2018-09-01T12:00:02.429Z,1021.32
2018-09-01T12:01:02.410Z,1021.24
2018-09-01T12:02:02.469Z,1021.29
2018-09-01T12:03:02.380Z,1021.30
2018-09-01T12:04:02.367Z,1021.28
2018-09-01T12:05:02.351Z,1021.30